sensor_id;sensor_type;location;lat;lon;timestamp;P1;durP1;ratioP1;P2;durP2;ratioP2
12181;SDS011;6154;51.550;12.138;2023-10-31T00:02:25;4.45;;;2.05;;
12181;SDS011;6154;51.550;12.138;2023-10-31T00:04:54;2.80;;;1.75;;
12181;SDS011;6154;51.550;12.138;2023-10-31T00:07:22;5.05;;;2.65;;
12181;SDS011;6154;51.550;12.138;2023-10-31T00:09:51;3.17;;;2.42;;
12181;SDS011;6154;51.550;12.138;2023-10-31T00:12:20;3.10;;;2.25;;
12181;SDS011;6154;51.550;12.138;2023-10-31T00:14:50;4.28;;;2.67;;
12181;SDS011;6154;51.550;12.138;2023-10-31T00:17:18;3.25;;;2.60;;
12181;SDS011;6154;51.550;12.138;2023-10-31T00:19:46;3.55;;;2.70;;
12181;SDS011;6154;51.550;12.138;2023-10-31T00:22:15;2.92;;;2.15;;
12181;SDS011;6154;51.550;12.138;2023-10-31T00:24:43;4.47;;;2.47;;
12181;SDS011;6154;51.550;12.138;2023-10-31T00:27:12;5.18;;;2.75;;
12181;SDS011;6154;51.550;12.138;2023-10-31T00:29:41;4.87;;;2.85;;
12181;SDS011;6154;51.550;12.138;2023-10-31T00:32:10;3.35;;;2.45;;
12181;SDS011;6154;51.550;12.138;2023-10-31T00:34:38;4.40;;;2.75;;
12181;SDS011;6154;51.550;12.138;2023-10-31T00:37:06;5.40;;;2.90;;
12181;SDS011;6154;51.550;12.138;2023-10-31T00:39:34;4.50;;;2.80;;
12181;SDS011;6154;51.550;12.138;2023-10-31T00:42:03;4.57;;;2.28;;
12181;SDS011;6154;51.550;12.138;2023-10-31T00:44:32;5.30;;;3.28;;
12181;SDS011;6154;51.550;12.138;2023-10-31T00:47:00;9.10;;;3.12;;
12181;SDS011;6154;51.550;12.138;2023-10-31T00:49:29;5.75;;;3.20;;
12181;SDS011;6154;51.550;12.138;2023-10-31T00:51:57;5.50;;;3.17;;
12181;SDS011;6154;51.550;12.138;2023-10-31T00:54:25;6.95;;;2.97;;
12181;SDS011;6154;51.550;12.138;2023-10-31T00:56:53;6.57;;;3.80;;
12181;SDS011;6154;51.550;12.138;2023-10-31T00:59:21;5.65;;;3.30;;
12181;SDS011;6154;51.550;12.138;2023-10-31T01:01:50;7.25;;;3.92;;
12181;SDS011;6154;51.550;12.138;2023-10-31T01:04:18;5.65;;;3.90;;
12181;SDS011;6154;51.550;12.138;2023-10-31T01:06:47;6.43;;;3.25;;
12181;SDS011;6154;51.550;12.138;2023-10-31T01:09:18;8.55;;;3.78;;
12181;SDS011;6154;51.550;12.138;2023-10-31T01:11:47;6.28;;;4.22;;
12181;SDS011;6154;51.550;12.138;2023-10-31T01:14:15;8.15;;;4.05;;
12181;SDS011;6154;51.550;12.138;2023-10-31T01:16:43;4.87;;;3.40;;
12181;SDS011;6154;51.550;12.138;2023-10-31T01:19:12;4.65;;;3.12;;
12181;SDS011;6154;51.550;12.138;2023-10-31T01:21:40;4.70;;;2.97;;
12181;SDS011;6154;51.550;12.138;2023-10-31T01:24:09;5.55;;;2.90;;
12181;SDS011;6154;51.550;12.138;2023-10-31T01:26:37;7.07;;;3.85;;
12181;SDS011;6154;51.550;12.138;2023-10-31T01:29:05;7.15;;;4.35;;
12181;SDS011;6154;51.550;12.138;2023-10-31T01:31:33;6.30;;;3.60;;
12181;SDS011;6154;51.550;12.138;2023-10-31T01:34:23;7.18;;;4.12;;
12181;SDS011;6154;51.550;12.138;2023-10-31T01:36:51;10.90;;;5.25;;
12181;SDS011;6154;51.550;12.138;2023-10-31T01:39:19;13.60;;;5.62;;
12181;SDS011;6154;51.550;12.138;2023-10-31T01:41:47;13.38;;;6.68;;
12181;SDS011;6154;51.550;12.138;2023-10-31T01:44:15;14.90;;;6.55;;
12181;SDS011;6154;51.550;12.138;2023-10-31T01:46:43;13.77;;;5.35;;
12181;SDS011;6154;51.550;12.138;2023-10-31T01:49:11;10.02;;;5.07;;
12181;SDS011;6154;51.550;12.138;2023-10-31T01:51:42;11.40;;;5.75;;
12181;SDS011;6154;51.550;12.138;2023-10-31T01:54:10;8.05;;;5.00;;
12181;SDS011;6154;51.550;12.138;2023-10-31T01:56:39;11.55;;;5.47;;
12181;SDS011;6154;51.550;12.138;2023-10-31T01:59:08;8.75;;;4.57;;
12181;SDS011;6154;51.550;12.138;2023-10-31T02:01:38;9.55;;;4.78;;
12181;SDS011;6154;51.550;12.138;2023-10-31T02:04:08;10.48;;;4.75;;
12181;SDS011;6154;51.550;12.138;2023-10-31T02:06:36;5.95;;;4.75;;
12181;SDS011;6154;51.550;12.138;2023-10-31T02:09:05;8.95;;;4.87;;
12181;SDS011;6154;51.550;12.138;2023-10-31T02:11:34;11.07;;;4.78;;
12181;SDS011;6154;51.550;12.138;2023-10-31T02:14:02;10.68;;;5.18;;
12181;SDS011;6154;51.550;12.138;2023-10-31T02:16:30;9.73;;;5.25;;
12181;SDS011;6154;51.550;12.138;2023-10-31T02:18:58;10.43;;;5.18;;
12181;SDS011;6154;51.550;12.138;2023-10-31T02:21:27;11.23;;;4.95;;
12181;SDS011;6154;51.550;12.138;2023-10-31T02:23:59;12.55;;;5.72;;
12181;SDS011;6154;51.550;12.138;2023-10-31T02:26:30;9.25;;;4.60;;
12181;SDS011;6154;51.550;12.138;2023-10-31T02:28:59;6.78;;;4.60;;
12181;SDS011;6154;51.550;12.138;2023-10-31T02:31:28;8.77;;;4.50;;
12181;SDS011;6154;51.550;12.138;2023-10-31T02:33:57;8.77;;;4.25;;
12181;SDS011;6154;51.550;12.138;2023-10-31T02:36:25;11.98;;;4.80;;
12181;SDS011;6154;51.550;12.138;2023-10-31T02:38:53;7.12;;;4.05;;
12181;SDS011;6154;51.550;12.138;2023-10-31T02:41:23;7.50;;;4.20;;
12181;SDS011;6154;51.550;12.138;2023-10-31T02:43:51;5.93;;;3.62;;
12181;SDS011;6154;51.550;12.138;2023-10-31T02:46:22;7.40;;;3.85;;
12181;SDS011;6154;51.550;12.138;2023-10-31T02:48:50;6.28;;;3.53;;
12181;SDS011;6154;51.550;12.138;2023-10-31T02:51:19;7.00;;;3.92;;
12181;SDS011;6154;51.550;12.138;2023-10-31T02:53:47;7.07;;;3.10;;
12181;SDS011;6154;51.550;12.138;2023-10-31T02:56:15;6.43;;;3.45;;
12181;SDS011;6154;51.550;12.138;2023-10-31T02:58:45;6.97;;;4.07;;
12181;SDS011;6154;51.550;12.138;2023-10-31T03:01:13;8.82;;;3.85;;
12181;SDS011;6154;51.550;12.138;2023-10-31T03:03:41;5.87;;;3.50;;
12181;SDS011;6154;51.550;12.138;2023-10-31T03:06:10;4.95;;;3.70;;
12181;SDS011;6154;51.550;12.138;2023-10-31T03:08:38;5.37;;;3.90;;
12181;SDS011;6154;51.550;12.138;2023-10-31T03:11:06;7.32;;;3.53;;
12181;SDS011;6154;51.550;12.138;2023-10-31T03:13:34;6.82;;;3.53;;
12181;SDS011;6154;51.550;12.138;2023-10-31T03:16:04;5.45;;;3.22;;
12181;SDS011;6154;51.550;12.138;2023-10-31T03:18:33;5.28;;;3.60;;
12181;SDS011;6154;51.550;12.138;2023-10-31T03:21:01;6.18;;;3.92;;
12181;SDS011;6154;51.550;12.138;2023-10-31T03:23:30;6.05;;;3.12;;
12181;SDS011;6154;51.550;12.138;2023-10-31T03:25:58;6.47;;;3.42;;
12181;SDS011;6154;51.550;12.138;2023-10-31T03:28:26;5.35;;;3.42;;
12181;SDS011;6154;51.550;12.138;2023-10-31T03:30:54;5.30;;;3.72;;
12181;SDS011;6154;51.550;12.138;2023-10-31T03:33:25;7.22;;;3.67;;
12181;SDS011;6154;51.550;12.138;2023-10-31T03:35:53;5.93;;;3.50;;
12181;SDS011;6154;51.550;12.138;2023-10-31T03:38:21;9.18;;;3.17;;
12181;SDS011;6154;51.550;12.138;2023-10-31T03:40:49;4.25;;;2.90;;
12181;SDS011;6154;51.550;12.138;2023-10-31T03:43:20;4.85;;;2.70;;
12181;SDS011;6154;51.550;12.138;2023-10-31T03:45:48;5.28;;;3.12;;
12181;SDS011;6154;51.550;12.138;2023-10-31T03:48:16;5.05;;;3.20;;
12181;SDS011;6154;51.550;12.138;2023-10-31T03:50:45;5.15;;;2.55;;
12181;SDS011;6154;51.550;12.138;2023-10-31T03:53:14;3.37;;;2.67;;
12181;SDS011;6154;51.550;12.138;2023-10-31T03:55:42;3.80;;;2.78;;
12181;SDS011;6154;51.550;12.138;2023-10-31T03:58:10;4.50;;;2.97;;
12181;SDS011;6154;51.550;12.138;2023-10-31T04:00:39;4.68;;;3.35;;
12181;SDS011;6154;51.550;12.138;2023-10-31T04:03:07;5.28;;;3.08;;
12181;SDS011;6154;51.550;12.138;2023-10-31T04:05:36;5.22;;;3.45;;
12181;SDS011;6154;51.550;12.138;2023-10-31T04:08:05;6.20;;;2.95;;
12181;SDS011;6154;51.550;12.138;2023-10-31T04:10:34;4.68;;;3.20;;
12181;SDS011;6154;51.550;12.138;2023-10-31T04:13:02;4.53;;;3.17;;
12181;SDS011;6154;51.550;12.138;2023-10-31T04:15:30;3.50;;;2.78;;
12181;SDS011;6154;51.550;12.138;2023-10-31T04:17:58;5.10;;;2.85;;
12181;SDS011;6154;51.550;12.138;2023-10-31T04:20:26;4.05;;;2.37;;
12181;SDS011;6154;51.550;12.138;2023-10-31T04:22:54;4.05;;;2.28;;
12181;SDS011;6154;51.550;12.138;2023-10-31T04:25:24;3.42;;;2.40;;
12181;SDS011;6154;51.550;12.138;2023-10-31T04:27:53;3.35;;;1.62;;
12181;SDS011;6154;51.550;12.138;2023-10-31T04:30:21;2.08;;;1.75;;
12181;SDS011;6154;51.550;12.138;2023-10-31T04:32:50;3.20;;;1.90;;
12181;SDS011;6154;51.550;12.138;2023-10-31T04:35:18;5.82;;;1.42;;
12181;SDS011;6154;51.550;12.138;2023-10-31T04:37:46;1.70;;;1.25;;
12181;SDS011;6154;51.550;12.138;2023-10-31T04:40:14;2.85;;;1.30;;
12181;SDS011;6154;51.550;12.138;2023-10-31T04:42:45;1.60;;;1.23;;
12181;SDS011;6154;51.550;12.138;2023-10-31T04:45:14;3.70;;;1.65;;
12181;SDS011;6154;51.550;12.138;2023-10-31T04:47:42;1.90;;;1.55;;
12181;SDS011;6154;51.550;12.138;2023-10-31T04:50:11;2.70;;;1.37;;
12181;SDS011;6154;51.550;12.138;2023-10-31T04:52:39;1.70;;;1.02;;
12181;SDS011;6154;51.550;12.138;2023-10-31T04:55:08;1.90;;;1.42;;
12181;SDS011;6154;51.550;12.138;2023-10-31T04:57:36;2.00;;;1.23;;
12181;SDS011;6154;51.550;12.138;2023-10-31T05:00:06;2.47;;;1.17;;
12181;SDS011;6154;51.550;12.138;2023-10-31T05:02:35;1.27;;;1.05;;
12181;SDS011;6154;51.550;12.138;2023-10-31T05:05:03;3.30;;;1.00;;
12181;SDS011;6154;51.550;12.138;2023-10-31T05:07:32;1.92;;;1.30;;
12181;SDS011;6154;51.550;12.138;2023-10-31T05:10:00;1.92;;;1.08;;
12181;SDS011;6154;51.550;12.138;2023-10-31T05:12:28;1.30;;;1.05;;
12181;SDS011;6154;51.550;12.138;2023-10-31T05:14:56;0.93;;;0.73;;
12181;SDS011;6154;51.550;12.138;2023-10-31T05:17:25;1.27;;;1.05;;
12181;SDS011;6154;51.550;12.138;2023-10-31T05:19:53;1.50;;;0.88;;
12181;SDS011;6154;51.550;12.138;2023-10-31T05:22:22;1.52;;;1.10;;
12181;SDS011;6154;51.550;12.138;2023-10-31T05:24:52;2.28;;;0.77;;
12181;SDS011;6154;51.550;12.138;2023-10-31T05:27:20;1.67;;;0.95;;
12181;SDS011;6154;51.550;12.138;2023-10-31T05:29:49;0.95;;;0.95;;
12181;SDS011;6154;51.550;12.138;2023-10-31T05:32:17;0.85;;;0.77;;
12181;SDS011;6154;51.550;12.138;2023-10-31T05:34:46;1.85;;;0.75;;
12181;SDS011;6154;51.550;12.138;2023-10-31T05:37:15;1.55;;;0.70;;
12181;SDS011;6154;51.550;12.138;2023-10-31T05:39:43;1.80;;;0.77;;
12181;SDS011;6154;51.550;12.138;2023-10-31T05:42:11;0.62;;;0.50;;
12181;SDS011;6154;51.550;12.138;2023-10-31T05:44:39;0.47;;;0.47;;
12181;SDS011;6154;51.550;12.138;2023-10-31T05:47:07;0.45;;;0.45;;
12181;SDS011;6154;51.550;12.138;2023-10-31T05:49:35;0.80;;;0.60;;
12181;SDS011;6154;51.550;12.138;2023-10-31T05:52:05;0.60;;;0.60;;
12181;SDS011;6154;51.550;12.138;2023-10-31T05:54:33;0.50;;;0.50;;
12181;SDS011;6154;51.550;12.138;2023-10-31T05:57:01;0.40;;;0.40;;
12181;SDS011;6154;51.550;12.138;2023-10-31T05:59:29;1.45;;;0.50;;
12181;SDS011;6154;51.550;12.138;2023-10-31T06:01:56;0.90;;;0.55;;
12181;SDS011;6154;51.550;12.138;2023-10-31T06:04:24;0.73;;;0.50;;
12181;SDS011;6154;51.550;12.138;2023-10-31T06:06:53;3.97;;;0.60;;
12181;SDS011;6154;51.550;12.138;2023-10-31T06:09:22;0.37;;;0.32;;
12181;SDS011;6154;51.550;12.138;2023-10-31T06:11:50;0.30;;;0.30;;
12181;SDS011;6154;51.550;12.138;2023-10-31T06:14:18;0.50;;;0.50;;
12181;SDS011;6154;51.550;12.138;2023-10-31T06:16:47;0.37;;;0.37;;
12181;SDS011;6154;51.550;12.138;2023-10-31T06:19:16;0.50;;;0.50;;
12181;SDS011;6154;51.550;12.138;2023-10-31T06:21:44;0.70;;;0.70;;
12181;SDS011;6154;51.550;12.138;2023-10-31T06:24:12;0.68;;;0.40;;
12181;SDS011;6154;51.550;12.138;2023-10-31T06:26:42;0.60;;;0.60;;
12181;SDS011;6154;51.550;12.138;2023-10-31T06:29:10;0.60;;;0.60;;
12181;SDS011;6154;51.550;12.138;2023-10-31T06:31:58;0.90;;;0.47;;
12181;SDS011;6154;51.550;12.138;2023-10-31T06:34:26;0.40;;;0.40;;
12181;SDS011;6154;51.550;12.138;2023-10-31T06:36:54;0.60;;;0.60;;
12181;SDS011;6154;51.550;12.138;2023-10-31T06:39:22;0.30;;;0.30;;
12181;SDS011;6154;51.550;12.138;2023-10-31T06:41:55;0.60;;;0.60;;
12181;SDS011;6154;51.550;12.138;2023-10-31T06:44:23;0.60;;;0.55;;
12181;SDS011;6154;51.550;12.138;2023-10-31T06:46:52;0.70;;;0.52;;
12181;SDS011;6154;51.550;12.138;2023-10-31T06:49:20;0.32;;;0.32;;
12181;SDS011;6154;51.550;12.138;2023-10-31T06:51:49;0.57;;;0.40;;
12181;SDS011;6154;51.550;12.138;2023-10-31T06:54:17;0.80;;;0.40;;
12181;SDS011;6154;51.550;12.138;2023-10-31T06:56:46;0.45;;;0.40;;
12181;SDS011;6154;51.550;12.138;2023-10-31T06:59:16;0.30;;;0.30;;
12181;SDS011;6154;51.550;12.138;2023-10-31T07:01:45;0.30;;;0.30;;
12181;SDS011;6154;51.550;12.138;2023-10-31T07:04:13;0.40;;;0.40;;
12181;SDS011;6154;51.550;12.138;2023-10-31T07:06:41;0.75;;;0.50;;
12181;SDS011;6154;51.550;12.138;2023-10-31T07:09:09;0.30;;;0.30;;
12181;SDS011;6154;51.550;12.138;2023-10-31T07:11:37;0.75;;;0.47;;
12181;SDS011;6154;51.550;12.138;2023-10-31T07:14:06;0.37;;;0.37;;
12181;SDS011;6154;51.550;12.138;2023-10-31T07:16:35;1.17;;;0.70;;
12181;SDS011;6154;51.550;12.138;2023-10-31T07:19:04;0.20;;;0.20;;
12181;SDS011;6154;51.550;12.138;2023-10-31T07:21:32;0.55;;;0.40;;
12181;SDS011;6154;51.550;12.138;2023-10-31T07:24:00;0.37;;;0.30;;
12181;SDS011;6154;51.550;12.138;2023-10-31T07:26:28;0.60;;;0.45;;
12181;SDS011;6154;51.550;12.138;2023-10-31T07:28:56;0.30;;;0.30;;
12181;SDS011;6154;51.550;12.138;2023-10-31T07:31:24;0.70;;;0.40;;
12181;SDS011;6154;51.550;12.138;2023-10-31T07:33:56;0.75;;;0.40;;
12181;SDS011;6154;51.550;12.138;2023-10-31T07:36:24;0.43;;;0.40;;
12181;SDS011;6154;51.550;12.138;2023-10-31T07:38:52;1.75;;;0.40;;
12181;SDS011;6154;51.550;12.138;2023-10-31T07:41:20;0.30;;;0.30;;
12181;SDS011;6154;51.550;12.138;2023-10-31T07:43:49;0.45;;;0.43;;
12181;SDS011;6154;51.550;12.138;2023-10-31T07:46:17;0.40;;;0.40;;
12181;SDS011;6154;51.550;12.138;2023-10-31T07:48:45;0.20;;;0.20;;
12181;SDS011;6154;51.550;12.138;2023-10-31T07:51:15;0.30;;;0.30;;
12181;SDS011;6154;51.550;12.138;2023-10-31T07:53:43;0.65;;;0.65;;
12181;SDS011;6154;51.550;12.138;2023-10-31T07:56:16;1.05;;;0.50;;
12181;SDS011;6154;51.550;12.138;2023-10-31T07:58:48;0.82;;;0.82;;
12181;SDS011;6154;51.550;12.138;2023-10-31T08:01:16;1.23;;;0.52;;
12181;SDS011;6154;51.550;12.138;2023-10-31T08:03:45;1.12;;;0.52;;
12181;SDS011;6154;51.550;12.138;2023-10-31T08:06:13;0.35;;;0.35;;
12181;SDS011;6154;51.550;12.138;2023-10-31T08:09:01;0.47;;;0.37;;
12181;SDS011;6154;51.550;12.138;2023-10-31T08:11:35;0.40;;;0.40;;
12181;SDS011;6154;51.550;12.138;2023-10-31T08:14:03;1.05;;;0.30;;
12181;SDS011;6154;51.550;12.138;2023-10-31T08:16:31;1.15;;;0.62;;
12181;SDS011;6154;51.550;12.138;2023-10-31T08:19:01;0.88;;;0.50;;
12181;SDS011;6154;51.550;12.138;2023-10-31T08:21:31;0.65;;;0.40;;
12181;SDS011;6154;51.550;12.138;2023-10-31T08:24:00;0.60;;;0.60;;
12181;SDS011;6154;51.550;12.138;2023-10-31T08:26:29;0.30;;;0.30;;
12181;SDS011;6154;51.550;12.138;2023-10-31T08:28:57;0.32;;;0.30;;
12181;SDS011;6154;51.550;12.138;2023-10-31T08:31:25;0.50;;;0.40;;
12181;SDS011;6154;51.550;12.138;2023-10-31T08:33:54;0.20;;;0.20;;
12181;SDS011;6154;51.550;12.138;2023-10-31T08:36:22;1.58;;;0.73;;
12181;SDS011;6154;51.550;12.138;2023-10-31T08:38:51;0.75;;;0.68;;
12181;SDS011;6154;51.550;12.138;2023-10-31T08:41:19;0.28;;;0.28;;
12181;SDS011;6154;51.550;12.138;2023-10-31T08:43:48;0.20;;;0.20;;
12181;SDS011;6154;51.550;12.138;2023-10-31T08:46:16;0.25;;;0.22;;
12181;SDS011;6154;51.550;12.138;2023-10-31T08:48:44;1.55;;;0.50;;
12181;SDS011;6154;51.550;12.138;2023-10-31T08:51:12;1.20;;;0.32;;
12181;SDS011;6154;51.550;12.138;2023-10-31T08:53:41;0.15;;;0.15;;
12181;SDS011;6154;51.550;12.138;2023-10-31T08:56:10;0.35;;;0.30;;
12181;SDS011;6154;51.550;12.138;2023-10-31T08:58:38;0.45;;;0.20;;
12181;SDS011;6154;51.550;12.138;2023-10-31T09:01:07;0.70;;;0.47;;
12181;SDS011;6154;51.550;12.138;2023-10-31T09:03:35;0.50;;;0.50;;
12181;SDS011;6154;51.550;12.138;2023-10-31T09:06:04;0.40;;;0.40;;
12181;SDS011;6154;51.550;12.138;2023-10-31T09:08:32;0.22;;;0.22;;
12181;SDS011;6154;51.550;12.138;2023-10-31T09:11:00;1.17;;;0.10;;
12181;SDS011;6154;51.550;12.138;2023-10-31T09:13:30;0.30;;;0.30;;
12181;SDS011;6154;51.550;12.138;2023-10-31T09:15:58;0.60;;;0.30;;
12181;SDS011;6154;51.550;12.138;2023-10-31T09:18:27;0.20;;;0.20;;
12181;SDS011;6154;51.550;12.138;2023-10-31T09:20:55;0.45;;;0.25;;
12181;SDS011;6154;51.550;12.138;2023-10-31T09:23:24;0.80;;;0.30;;
12181;SDS011;6154;51.550;12.138;2023-10-31T09:25:52;0.30;;;0.20;;
12181;SDS011;6154;51.550;12.138;2023-10-31T09:28:21;0.37;;;0.37;;
12181;SDS011;6154;51.550;12.138;2023-10-31T09:30:50;0.28;;;0.28;;
12181;SDS011;6154;51.550;12.138;2023-10-31T09:33:19;0.03;;;0.03;;
12181;SDS011;6154;51.550;12.138;2023-10-31T09:35:47;0.20;;;0.20;;
12181;SDS011;6154;51.550;12.138;2023-10-31T09:38:15;2.78;;;0.30;;
12181;SDS011;6154;51.550;12.138;2023-10-31T09:40:44;0.20;;;0.20;;
12181;SDS011;6154;51.550;12.138;2023-10-31T09:43:12;0.85;;;0.20;;
12181;SDS011;6154;51.550;12.138;2023-10-31T09:45:40;2.28;;;0.20;;
12181;SDS011;6154;51.550;12.138;2023-10-31T09:48:10;0.52;;;0.20;;
12181;SDS011;6154;51.550;12.138;2023-10-31T09:50:38;0.77;;;0.13;;
12181;SDS011;6154;51.550;12.138;2023-10-31T09:53:09;0.10;;;0.10;;
12181;SDS011;6154;51.550;12.138;2023-10-31T09:55:38;0.50;;;0.50;;
12181;SDS011;6154;51.550;12.138;2023-10-31T09:58:06;0.13;;;0.13;;
12181;SDS011;6154;51.550;12.138;2023-10-31T10:00:34;0.13;;;0.13;;
12181;SDS011;6154;51.550;12.138;2023-10-31T10:03:03;0.20;;;0.20;;
12181;SDS011;6154;51.550;12.138;2023-10-31T10:05:33;0.10;;;0.10;;
12181;SDS011;6154;51.550;12.138;2023-10-31T10:08:03;0.15;;;0.15;;
12181;SDS011;6154;51.550;12.138;2023-10-31T10:10:33;1.25;;;0.10;;
12181;SDS011;6154;51.550;12.138;2023-10-31T10:13:01;0.10;;;0.10;;
12181;SDS011;6154;51.550;12.138;2023-10-31T10:15:34;0.10;;;0.10;;
12181;SDS011;6154;51.550;12.138;2023-10-31T10:18:20;1.87;;;0.13;;
12181;SDS011;6154;51.550;12.138;2023-10-31T10:21:04;0.43;;;0.17;;
12181;SDS011;6154;51.550;12.138;2023-10-31T10:23:33;0.20;;;0.20;;
12181;SDS011;6154;51.550;12.138;2023-10-31T10:26:02;0.10;;;0.10;;
12181;SDS011;6154;51.550;12.138;2023-10-31T10:28:31;0.73;;;0.20;;
12181;SDS011;6154;51.550;12.138;2023-10-31T10:31:00;0.17;;;0.17;;
12181;SDS011;6154;51.550;12.138;2023-10-31T10:33:29;0.10;;;0.10;;
12181;SDS011;6154;51.550;12.138;2023-10-31T10:35:57;0.10;;;0.10;;
12181;SDS011;6154;51.550;12.138;2023-10-31T10:38:28;0.17;;;0.10;;
12181;SDS011;6154;51.550;12.138;2023-10-31T10:40:59;0.13;;;0.10;;
12181;SDS011;6154;51.550;12.138;2023-10-31T10:43:29;0.20;;;0.20;;
12181;SDS011;6154;51.550;12.138;2023-10-31T10:46:04;0.03;;;0.03;;
12181;SDS011;6154;51.550;12.138;2023-10-31T10:48:35;0.22;;;0.10;;
12181;SDS011;6154;51.550;12.138;2023-10-31T10:51:08;0.13;;;0.13;;
12181;SDS011;6154;51.550;12.138;2023-10-31T10:53:49;0.17;;;0.17;;
12181;SDS011;6154;51.550;12.138;2023-10-31T10:56:19;0.20;;;0.20;;
12181;SDS011;6154;51.550;12.138;2023-10-31T10:58:55;0.85;;;0.20;;
12181;SDS011;6154;51.550;12.138;2023-10-31T11:01:26;2.00;;;0.20;;
12181;SDS011;6154;51.550;12.138;2023-10-31T11:03:55;0.20;;;0.20;;
12181;SDS011;6154;51.550;12.138;2023-10-31T11:06:24;0.37;;;0.30;;
12181;SDS011;6154;51.550;12.138;2023-10-31T11:08:55;1.35;;;0.20;;
12181;SDS011;6154;51.550;12.138;2023-10-31T11:11:24;0.10;;;0.10;;
12181;SDS011;6154;51.550;12.138;2023-10-31T11:13:53;0.77;;;0.20;;
12181;SDS011;6154;51.550;12.138;2023-10-31T11:16:24;0.10;;;0.10;;
12181;SDS011;6154;51.550;12.138;2023-10-31T11:18:57;0.65;;;0.20;;
12181;SDS011;6154;51.550;12.138;2023-10-31T11:21:27;0.20;;;0.20;;
12181;SDS011;6154;51.550;12.138;2023-10-31T11:24:00;0.15;;;0.13;;
12181;SDS011;6154;51.550;12.138;2023-10-31T11:26:30;0.10;;;0.10;;
12181;SDS011;6154;51.550;12.138;2023-10-31T11:29:05;0.20;;;0.20;;
12181;SDS011;6154;51.550;12.138;2023-10-31T11:31:37;0.10;;;0.10;;
12181;SDS011;6154;51.550;12.138;2023-10-31T11:34:05;1.80;;;0.30;;
12181;SDS011;6154;51.550;12.138;2023-10-31T11:36:35;0.37;;;0.25;;
12181;SDS011;6154;51.550;12.138;2023-10-31T11:41:53;0.30;;;0.30;;
12181;SDS011;6154;51.550;12.138;2023-10-31T11:44:23;0.20;;;0.20;;
12181;SDS011;6154;51.550;12.138;2023-10-31T11:46:53;0.10;;;0.10;;
12181;SDS011;6154;51.550;12.138;2023-10-31T11:52:14;0.30;;;0.20;;
12181;SDS011;6154;51.550;12.138;2023-10-31T11:54:44;1.00;;;0.28;;
12181;SDS011;6154;51.550;12.138;2023-10-31T11:57:25;0.35;;;0.20;;
12181;SDS011;6154;51.550;12.138;2023-10-31T11:59:54;0.20;;;0.20;;
12181;SDS011;6154;51.550;12.138;2023-10-31T12:02:22;0.30;;;0.30;;
12181;SDS011;6154;51.550;12.138;2023-10-31T12:04:50;0.15;;;0.15;;
12181;SDS011;6154;51.550;12.138;2023-10-31T12:07:18;1.42;;;0.25;;
12181;SDS011;6154;51.550;12.138;2023-10-31T12:09:48;0.20;;;0.20;;
12181;SDS011;6154;51.550;12.138;2023-10-31T12:12:29;0.20;;;0.20;;
12181;SDS011;6154;51.550;12.138;2023-10-31T12:15:03;0.25;;;0.25;;
12181;SDS011;6154;51.550;12.138;2023-10-31T12:17:33;0.40;;;0.40;;
12181;SDS011;6154;51.550;12.138;2023-10-31T12:20:05;0.30;;;0.28;;
12181;SDS011;6154;51.550;12.138;2023-10-31T12:22:35;0.30;;;0.30;;
12181;SDS011;6154;51.550;12.138;2023-10-31T12:25:05;0.25;;;0.20;;
12181;SDS011;6154;51.550;12.138;2023-10-31T12:27:41;0.90;;;0.40;;
12181;SDS011;6154;51.550;12.138;2023-10-31T12:30:11;0.20;;;0.20;;
12181;SDS011;6154;51.550;12.138;2023-10-31T12:32:41;1.35;;;0.43;;
12181;SDS011;6154;51.550;12.138;2023-10-31T12:35:10;0.40;;;0.28;;
12181;SDS011;6154;51.550;12.138;2023-10-31T12:37:44;0.35;;;0.30;;
12181;SDS011;6154;51.550;12.138;2023-10-31T12:40:15;0.40;;;0.30;;
12181;SDS011;6154;51.550;12.138;2023-10-31T12:42:46;1.02;;;0.20;;
12181;SDS011;6154;51.550;12.138;2023-10-31T12:45:17;0.55;;;0.45;;
12181;SDS011;6154;51.550;12.138;2023-10-31T12:47:59;0.30;;;0.30;;
12181;SDS011;6154;51.550;12.138;2023-10-31T12:50:28;0.30;;;0.30;;
12181;SDS011;6154;51.550;12.138;2023-10-31T12:52:57;0.25;;;0.25;;
12181;SDS011;6154;51.550;12.138;2023-10-31T12:55:28;0.10;;;0.10;;
12181;SDS011;6154;51.550;12.138;2023-10-31T12:57:57;0.37;;;0.17;;
12181;SDS011;6154;51.550;12.138;2023-10-31T13:00:30;0.43;;;0.25;;
12181;SDS011;6154;51.550;12.138;2023-10-31T13:02:59;0.30;;;0.30;;
12181;SDS011;6154;51.550;12.138;2023-10-31T13:05:30;0.20;;;0.20;;
12181;SDS011;6154;51.550;12.138;2023-10-31T13:08:00;0.10;;;0.10;;
12181;SDS011;6154;51.550;12.138;2023-10-31T13:10:34;0.43;;;0.37;;
12181;SDS011;6154;51.550;12.138;2023-10-31T13:13:02;1.23;;;0.80;;
12181;SDS011;6154;51.550;12.138;2023-10-31T13:15:30;0.60;;;0.50;;
12181;SDS011;6154;51.550;12.138;2023-10-31T13:17:59;0.40;;;0.40;;
12181;SDS011;6154;51.550;12.138;2023-10-31T13:20:27;0.55;;;0.50;;
12181;SDS011;6154;51.550;12.138;2023-10-31T13:22:56;0.95;;;0.40;;
12181;SDS011;6154;51.550;12.138;2023-10-31T13:25:24;0.32;;;0.32;;
12181;SDS011;6154;51.550;12.138;2023-10-31T13:27:53;1.17;;;0.40;;
12181;SDS011;6154;51.550;12.138;2023-10-31T13:30:25;0.20;;;0.20;;
12181;SDS011;6154;51.550;12.138;2023-10-31T13:32:54;0.30;;;0.30;;
12181;SDS011;6154;51.550;12.138;2023-10-31T13:35:24;0.32;;;0.32;;
12181;SDS011;6154;51.550;12.138;2023-10-31T13:37:52;1.87;;;0.32;;
12181;SDS011;6154;51.550;12.138;2023-10-31T13:40:20;1.40;;;0.45;;
12181;SDS011;6154;51.550;12.138;2023-10-31T13:42:48;0.65;;;0.50;;
12181;SDS011;6154;51.550;12.138;2023-10-31T13:45:18;0.40;;;0.40;;
12181;SDS011;6154;51.550;12.138;2023-10-31T13:47:46;0.85;;;0.50;;
12181;SDS011;6154;51.550;12.138;2023-10-31T13:50:15;0.32;;;0.32;;
12181;SDS011;6154;51.550;12.138;2023-10-31T13:52:43;0.95;;;0.30;;
12181;SDS011;6154;51.550;12.138;2023-10-31T13:55:11;0.50;;;0.50;;
12181;SDS011;6154;51.550;12.138;2023-10-31T13:57:40;0.35;;;0.35;;
12181;SDS011;6154;51.550;12.138;2023-10-31T14:00:09;0.50;;;0.50;;
12181;SDS011;6154;51.550;12.138;2023-10-31T14:02:54;0.70;;;0.50;;
12181;SDS011;6154;51.550;12.138;2023-10-31T14:05:22;1.02;;;0.50;;
12181;SDS011;6154;51.550;12.138;2023-10-31T14:07:51;2.85;;;0.65;;
12181;SDS011;6154;51.550;12.138;2023-10-31T14:10:23;0.70;;;0.60;;
12181;SDS011;6154;51.550;12.138;2023-10-31T14:12:53;1.10;;;0.82;;
12181;SDS011;6154;51.550;12.138;2023-10-31T14:15:22;0.68;;;0.68;;
12181;SDS011;6154;51.550;12.138;2023-10-31T14:17:50;0.77;;;0.60;;
12181;SDS011;6154;51.550;12.138;2023-10-31T14:20:20;0.82;;;0.60;;
12181;SDS011;6154;51.550;12.138;2023-10-31T14:22:48;0.75;;;0.40;;
12181;SDS011;6154;51.550;12.138;2023-10-31T14:25:17;1.10;;;0.70;;
12181;SDS011;6154;51.550;12.138;2023-10-31T14:27:45;1.12;;;0.50;;
12181;SDS011;6154;51.550;12.138;2023-10-31T14:30:13;0.95;;;0.80;;
12181;SDS011;6154;51.550;12.138;2023-10-31T14:32:41;1.25;;;0.70;;
12181;SDS011;6154;51.550;12.138;2023-10-31T14:35:09;2.12;;;0.95;;
12181;SDS011;6154;51.550;12.138;2023-10-31T14:37:39;0.50;;;0.45;;
12181;SDS011;6154;51.550;12.138;2023-10-31T14:40:08;1.30;;;0.80;;
12181;SDS011;6154;51.550;12.138;2023-10-31T14:42:37;1.35;;;0.70;;
12181;SDS011;6154;51.550;12.138;2023-10-31T14:45:05;1.17;;;0.70;;
12181;SDS011;6154;51.550;12.138;2023-10-31T14:47:34;1.50;;;0.82;;
12181;SDS011;6154;51.550;12.138;2023-10-31T14:50:02;1.67;;;1.23;;
12181;SDS011;6154;51.550;12.138;2023-10-31T14:52:31;0.80;;;0.47;;
12181;SDS011;6154;51.550;12.138;2023-10-31T14:55:03;2.65;;;0.77;;
12181;SDS011;6154;51.550;12.138;2023-10-31T14:57:32;3.00;;;1.73;;
12181;SDS011;6154;51.550;12.138;2023-10-31T15:00:00;2.47;;;2.00;;
12181;SDS011;6154;51.550;12.138;2023-10-31T15:02:28;1.27;;;1.10;;
12181;SDS011;6154;51.550;12.138;2023-10-31T15:04:56;1.02;;;0.70;;
12181;SDS011;6154;51.550;12.138;2023-10-31T15:07:25;1.00;;;0.70;;